sensor_id;sensor_type;location;lat;lon;timestamp;P1;durP1;ratioP1;P2;durP2;ratioP2
7334;SDS011;3708;42.632;23.378;2023-08-07T00:01:45;2.00;;;1.80;;
7334;SDS011;3708;42.632;23.378;2023-08-07T00:04:13;2.80;;;2.03;;
7334;SDS011;3708;42.632;23.378;2023-08-07T00:06:40;1.57;;;1.47;;
7334;SDS011;3708;42.632;23.378;2023-08-07T00:09:07;5.17;;;2.73;;
7334;SDS011;3708;42.632;23.378;2023-08-07T00:11:34;2.20;;;1.83;;
7334;SDS011;3708;42.632;23.378;2023-08-07T00:14:01;1.67;;;1.57;;
7334;SDS011;3708;42.632;23.378;2023-08-07T00:16:29;2.83;;;1.90;;
7334;SDS011;3708;42.632;23.378;2023-08-07T00:18:55;2.77;;;1.90;;
7334;SDS011;3708;42.632;23.378;2023-08-07T00:21:24;1.87;;;1.70;;
7334;SDS011;3708;42.632;23.378;2023-08-07T00:23:53;1.97;;;1.77;;
7334;SDS011;3708;42.632;23.378;2023-08-07T00:26:21;3.60;;;1.83;;
7334;SDS011;3708;42.632;23.378;2023-08-07T00:28:48;2.47;;;1.97;;
7334;SDS011;3708;42.632;23.378;2023-08-07T00:31:15;4.03;;;1.90;;
7334;SDS011;3708;42.632;23.378;2023-08-07T00:33:43;1.97;;;1.77;;
7334;SDS011;3708;42.632;23.378;2023-08-07T00:36:09;2.73;;;2.20;;
7334;SDS011;3708;42.632;23.378;2023-08-07T00:38:38;3.00;;;2.10;;
7334;SDS011;3708;42.632;23.378;2023-08-07T00:41:04;2.03;;;1.83;;
7334;SDS011;3708;42.632;23.378;2023-08-07T00:43:32;2.77;;;1.83;;
7334;SDS011;3708;42.632;23.378;2023-08-07T00:45:59;1.97;;;1.83;;
7334;SDS011;3708;42.632;23.378;2023-08-07T00:48:26;2.63;;;1.80;;
7334;SDS011;3708;42.632;23.378;2023-08-07T00:50:54;2.73;;;1.70;;
7334;SDS011;3708;42.632;23.378;2023-08-07T00:53:22;2.20;;;2.00;;
7334;SDS011;3708;42.632;23.378;2023-08-07T00:55:51;1.70;;;1.60;;
7334;SDS011;3708;42.632;23.378;2023-08-07T00:58:18;2.30;;;1.80;;
7334;SDS011;3708;42.632;23.378;2023-08-07T01:00:45;2.77;;;2.00;;
7334;SDS011;3708;42.632;23.378;2023-08-07T01:03:13;2.50;;;1.90;;
7334;SDS011;3708;42.632;23.378;2023-08-07T01:05:40;2.07;;;1.87;;
7334;SDS011;3708;42.632;23.378;2023-08-07T01:08:07;4.93;;;1.80;;
7334;SDS011;3708;42.632;23.378;2023-08-07T01:10:37;2.03;;;1.83;;
7334;SDS011;3708;42.632;23.378;2023-08-07T01:13:16;2.00;;;1.77;;
7334;SDS011;3708;42.632;23.378;2023-08-07T01:15:51;3.63;;;1.80;;
7334;SDS011;3708;42.632;23.378;2023-08-07T01:18:22;2.23;;;1.90;;
7334;SDS011;3708;42.632;23.378;2023-08-07T01:20:49;2.30;;;2.07;;
7334;SDS011;3708;42.632;23.378;2023-08-07T01:23:17;2.33;;;2.00;;
7334;SDS011;3708;42.632;23.378;2023-08-07T01:25:44;3.40;;;2.30;;
7334;SDS011;3708;42.632;23.378;2023-08-07T01:28:12;3.80;;;2.50;;
7334;SDS011;3708;42.632;23.378;2023-08-07T01:30:46;2.87;;;2.57;;
7334;SDS011;3708;42.632;23.378;2023-08-07T01:33:17;2.70;;;2.40;;
7334;SDS011;3708;42.632;23.378;2023-08-07T01:35:53;3.33;;;2.60;;
7334;SDS011;3708;42.632;23.378;2023-08-07T01:38:25;3.20;;;2.90;;
7334;SDS011;3708;42.632;23.378;2023-08-07T01:40:53;3.50;;;3.20;;
7334;SDS011;3708;42.632;23.378;2023-08-07T01:43:21;3.03;;;2.83;;
7334;SDS011;3708;42.632;23.378;2023-08-07T01:45:48;4.67;;;2.73;;
7334;SDS011;3708;42.632;23.378;2023-08-07T01:48:16;3.90;;;3.50;;
7334;SDS011;3708;42.632;23.378;2023-08-07T01:50:43;3.40;;;3.10;;
7334;SDS011;3708;42.632;23.378;2023-08-07T01:53:10;2.93;;;2.63;;
7334;SDS011;3708;42.632;23.378;2023-08-07T01:55:42;3.43;;;3.13;;
7334;SDS011;3708;42.632;23.378;2023-08-07T01:58:09;2.77;;;2.57;;
7334;SDS011;3708;42.632;23.378;2023-08-07T02:00:37;2.90;;;2.70;;
7334;SDS011;3708;42.632;23.378;2023-08-07T02:03:04;3.30;;;3.00;;
7334;SDS011;3708;42.632;23.378;2023-08-07T02:05:31;3.50;;;3.20;;
7334;SDS011;3708;42.632;23.378;2023-08-07T02:07:59;3.20;;;2.90;;
7334;SDS011;3708;42.632;23.378;2023-08-07T02:10:33;3.30;;;3.00;;
7334;SDS011;3708;42.632;23.378;2023-08-07T02:13:01;3.13;;;2.80;;
7334;SDS011;3708;42.632;23.378;2023-08-07T02:15:36;3.40;;;3.07;;
7334;SDS011;3708;42.632;23.378;2023-08-07T02:18:07;3.30;;;3.00;;
7334;SDS011;3708;42.632;23.378;2023-08-07T02:20:39;4.13;;;3.27;;
7334;SDS011;3708;42.632;23.378;2023-08-07T02:23:08;3.03;;;2.73;;
7334;SDS011;3708;42.632;23.378;2023-08-07T02:25:35;3.67;;;3.00;;
7334;SDS011;3708;42.632;23.378;2023-08-07T02:28:03;3.53;;;3.17;;
7334;SDS011;3708;42.632;23.378;2023-08-07T02:30:30;3.30;;;3.00;;
7334;SDS011;3708;42.632;23.378;2023-08-07T02:32:57;2.77;;;2.57;;
7334;SDS011;3708;42.632;23.378;2023-08-07T02:35:24;3.83;;;2.50;;
7334;SDS011;3708;42.632;23.378;2023-08-07T02:37:51;2.93;;;2.73;;
7334;SDS011;3708;42.632;23.378;2023-08-07T02:40:18;3.00;;;2.67;;
7334;SDS011;3708;42.632;23.378;2023-08-07T02:42:45;3.10;;;2.40;;
7334;SDS011;3708;42.632;23.378;2023-08-07T02:45:14;2.50;;;2.30;;
7334;SDS011;3708;42.632;23.378;2023-08-07T02:47:41;3.67;;;2.70;;
7334;SDS011;3708;42.632;23.378;2023-08-07T02:50:08;3.27;;;2.90;;
7334;SDS011;3708;42.632;23.378;2023-08-07T02:52:38;3.43;;;3.00;;
7334;SDS011;3708;42.632;23.378;2023-08-07T02:55:07;3.47;;;3.17;;
7334;SDS011;3708;42.632;23.378;2023-08-07T02:57:34;5.53;;;2.80;;
7334;SDS011;3708;42.632;23.378;2023-08-07T03:00:01;3.60;;;2.53;;
7334;SDS011;3708;42.632;23.378;2023-08-07T03:02:30;4.00;;;3.20;;
7334;SDS011;3708;42.632;23.378;2023-08-07T03:04:58;5.13;;;3.07;;
7334;SDS011;3708;42.632;23.378;2023-08-07T03:07:25;3.20;;;2.70;;
7334;SDS011;3708;42.632;23.378;2023-08-07T03:09:53;3.73;;;2.70;;
7334;SDS011;3708;42.632;23.378;2023-08-07T03:12:20;2.73;;;2.40;;
7334;SDS011;3708;42.632;23.378;2023-08-07T03:14:47;3.40;;;3.10;;
7334;SDS011;3708;42.632;23.378;2023-08-07T03:17:15;3.73;;;3.30;;
7334;SDS011;3708;42.632;23.378;2023-08-07T03:19:45;4.17;;;3.50;;
7334;SDS011;3708;42.632;23.378;2023-08-07T03:22:12;3.73;;;3.40;;
7334;SDS011;3708;42.632;23.378;2023-08-07T03:24:39;3.80;;;3.50;;
7334;SDS011;3708;42.632;23.378;2023-08-07T03:27:05;4.00;;;3.70;;
7334;SDS011;3708;42.632;23.378;2023-08-07T03:29:33;4.80;;;3.57;;
7334;SDS011;3708;42.632;23.378;2023-08-07T03:32:00;3.53;;;3.23;;
7334;SDS011;3708;42.632;23.378;2023-08-07T03:34:27;3.90;;;3.57;;
7334;SDS011;3708;42.632;23.378;2023-08-07T03:36:56;4.23;;;3.83;;
7334;SDS011;3708;42.632;23.378;2023-08-07T03:39:24;4.10;;;3.70;;
7334;SDS011;3708;42.632;23.378;2023-08-07T03:41:52;5.20;;;3.30;;
7334;SDS011;3708;42.632;23.378;2023-08-07T03:44:21;4.40;;;3.63;;
7334;SDS011;3708;42.632;23.378;2023-08-07T03:46:47;3.67;;;3.37;;
7334;SDS011;3708;42.632;23.378;2023-08-07T03:49:16;3.47;;;3.17;;
7334;SDS011;3708;42.632;23.378;2023-08-07T03:51:46;5.73;;;4.03;;
7334;SDS011;3708;42.632;23.378;2023-08-07T03:54:16;3.90;;;3.20;;
7334;SDS011;3708;42.632;23.378;2023-08-07T03:56:43;4.03;;;3.27;;
7334;SDS011;3708;42.632;23.378;2023-08-07T03:59:09;6.13;;;3.70;;
7334;SDS011;3708;42.632;23.378;2023-08-07T04:01:36;3.77;;;3.47;;
7334;SDS011;3708;42.632;23.378;2023-08-07T04:04:03;4.00;;;3.60;;
7334;SDS011;3708;42.632;23.378;2023-08-07T04:06:30;3.53;;;3.23;;
7334;SDS011;3708;42.632;23.378;2023-08-07T04:08:57;4.00;;;3.60;;
7334;SDS011;3708;42.632;23.378;2023-08-07T04:11:25;5.00;;;3.77;;
7334;SDS011;3708;42.632;23.378;2023-08-07T04:13:52;4.20;;;3.50;;
7334;SDS011;3708;42.632;23.378;2023-08-07T04:16:19;4.93;;;3.60;;
7334;SDS011;3708;42.632;23.378;2023-08-07T04:18:47;3.43;;;3.13;;
7334;SDS011;3708;42.632;23.378;2023-08-07T04:21:13;3.43;;;2.90;;
7334;SDS011;3708;42.632;23.378;2023-08-07T04:23:40;5.60;;;3.10;;
7334;SDS011;3708;42.632;23.378;2023-08-07T04:26:07;3.60;;;3.20;;
7334;SDS011;3708;42.632;23.378;2023-08-07T04:28:37;5.37;;;3.10;;
7334;SDS011;3708;42.632;23.378;2023-08-07T04:31:08;3.60;;;3.30;;
7334;SDS011;3708;42.632;23.378;2023-08-07T04:33:35;3.33;;;2.80;;
7334;SDS011;3708;42.632;23.378;2023-08-07T04:36:01;5.00;;;3.63;;
7334;SDS011;3708;42.632;23.378;2023-08-07T04:38:28;4.63;;;3.00;;
7334;SDS011;3708;42.632;23.378;2023-08-07T04:40:57;4.97;;;2.87;;
7334;SDS011;3708;42.632;23.378;2023-08-07T04:43:23;6.83;;;3.30;;
7334;SDS011;3708;42.632;23.378;2023-08-07T04:45:52;3.77;;;3.10;;
7334;SDS011;3708;42.632;23.378;2023-08-07T04:48:19;3.63;;;3.33;;
7334;SDS011;3708;42.632;23.378;2023-08-07T04:50:47;6.27;;;3.67;;
7334;SDS011;3708;42.632;23.378;2023-08-07T04:53:16;3.20;;;2.90;;
7334;SDS011;3708;42.632;23.378;2023-08-07T04:55:43;3.70;;;3.23;;
7334;SDS011;3708;42.632;23.378;2023-08-07T04:58:10;4.40;;;3.10;;
7334;SDS011;3708;42.632;23.378;2023-08-07T05:00:37;4.70;;;2.80;;
7334;SDS011;3708;42.632;23.378;2023-08-07T05:03:10;3.43;;;2.93;;
7334;SDS011;3708;42.632;23.378;2023-08-07T05:05:37;3.27;;;2.93;;
7334;SDS011;3708;42.632;23.378;2023-08-07T05:08:04;3.20;;;2.90;;
7334;SDS011;3708;42.632;23.378;2023-08-07T05:10:31;3.00;;;2.67;;
7334;SDS011;3708;42.632;23.378;2023-08-07T05:13:00;2.80;;;2.60;;
7334;SDS011;3708;42.632;23.378;2023-08-07T05:15:29;3.33;;;2.77;;
7334;SDS011;3708;42.632;23.378;2023-08-07T05:17:56;3.73;;;3.20;;
7334;SDS011;3708;42.632;23.378;2023-08-07T05:20:26;4.90;;;3.23;;
7334;SDS011;3708;42.632;23.378;2023-08-07T05:22:54;5.23;;;2.80;;
7334;SDS011;3708;42.632;23.378;2023-08-07T05:25:24;6.10;;;3.63;;
7334;SDS011;3708;42.632;23.378;2023-08-07T05:27:52;4.67;;;3.20;;
7334;SDS011;3708;42.632;23.378;2023-08-07T05:30:20;3.97;;;2.83;;
7334;SDS011;3708;42.632;23.378;2023-08-07T05:32:50;3.10;;;2.80;;
7334;SDS011;3708;42.632;23.378;2023-08-07T05:35:17;3.87;;;2.90;;
7334;SDS011;3708;42.632;23.378;2023-08-07T05:38:09;3.77;;;3.10;;
7334;SDS011;3708;42.632;23.378;2023-08-07T05:40:44;4.07;;;3.57;;
7334;SDS011;3708;42.632;23.378;2023-08-07T05:43:36;6.70;;;4.30;;
7334;SDS011;3708;42.632;23.378;2023-08-07T05:46:09;5.07;;;3.33;;
7334;SDS011;3708;42.632;23.378;2023-08-07T05:48:36;3.13;;;2.83;;
7334;SDS011;3708;42.632;23.378;2023-08-07T05:51:03;2.90;;;2.70;;
7334;SDS011;3708;42.632;23.378;2023-08-07T05:53:31;3.77;;;2.60;;
7334;SDS011;3708;42.632;23.378;2023-08-07T05:55:58;3.03;;;2.47;;
7334;SDS011;3708;42.632;23.378;2023-08-07T05:58:25;3.20;;;2.90;;
7334;SDS011;3708;42.632;23.378;2023-08-07T06:00:52;4.43;;;2.80;;
7334;SDS011;3708;42.632;23.378;2023-08-07T06:03:19;3.50;;;2.80;;
7334;SDS011;3708;42.632;23.378;2023-08-07T06:05:46;3.00;;;2.70;;
7334;SDS011;3708;42.632;23.378;2023-08-07T06:08:18;3.07;;;2.77;;
7334;SDS011;3708;42.632;23.378;2023-08-07T06:10:46;3.47;;;2.63;;
7334;SDS011;3708;42.632;23.378;2023-08-07T06:13:13;4.70;;;2.80;;
7334;SDS011;3708;42.632;23.378;2023-08-07T06:15:40;3.13;;;2.70;;
7334;SDS011;3708;42.632;23.378;2023-08-07T06:18:07;3.53;;;3.23;;
7334;SDS011;3708;42.632;23.378;2023-08-07T06:20:36;2.53;;;2.33;;
7334;SDS011;3708;42.632;23.378;2023-08-07T06:23:04;4.70;;;3.00;;
7334;SDS011;3708;42.632;23.378;2023-08-07T06:25:53;3.03;;;2.70;;
7334;SDS011;3708;42.632;23.378;2023-08-07T06:28:20;3.00;;;2.77;;
7334;SDS011;3708;42.632;23.378;2023-08-07T06:30:47;2.90;;;2.60;;
7334;SDS011;3708;42.632;23.378;2023-08-07T06:33:42;2.70;;;2.47;;
7334;SDS011;3708;42.632;23.378;2023-08-07T06:36:11;2.50;;;2.30;;
7334;SDS011;3708;42.632;23.378;2023-08-07T06:38:46;4.73;;;2.50;;
7334;SDS011;3708;42.632;23.378;2023-08-07T06:41:33;4.50;;;2.30;;
7334;SDS011;3708;42.632;23.378;2023-08-07T06:44:05;2.60;;;1.93;;
7334;SDS011;3708;42.632;23.378;2023-08-07T06:46:34;2.30;;;2.10;;
7334;SDS011;3708;42.632;23.378;2023-08-07T06:49:07;4.47;;;2.27;;
7334;SDS011;3708;42.632;23.378;2023-08-07T06:51:41;2.40;;;2.20;;
7334;SDS011;3708;42.632;23.378;2023-08-07T06:54:08;1.87;;;1.77;;
7334;SDS011;3708;42.632;23.378;2023-08-07T06:56:42;2.13;;;1.93;;
7334;SDS011;3708;42.632;23.378;2023-08-07T06:59:41;2.83;;;2.03;;
7334;SDS011;3708;42.632;23.378;2023-08-07T07:02:26;1.60;;;1.40;;
7334;SDS011;3708;42.632;23.378;2023-08-07T07:05:07;1.43;;;1.33;;
7334;SDS011;3708;42.632;23.378;2023-08-07T07:08:00;1.70;;;1.60;;
7334;SDS011;3708;42.632;23.378;2023-08-07T07:10:28;3.03;;;1.83;;
7334;SDS011;3708;42.632;23.378;2023-08-07T07:13:01;2.27;;;1.30;;
7334;SDS011;3708;42.632;23.378;2023-08-07T07:19:28;3.43;;;1.43;;
7334;SDS011;3708;42.632;23.378;2023-08-07T07:21:59;2.17;;;1.50;;
7334;SDS011;3708;42.632;23.378;2023-08-07T07:24:28;4.20;;;1.60;;
7334;SDS011;3708;42.632;23.378;2023-08-07T07:27:03;2.60;;;1.38;;
7334;SDS011;3708;42.632;23.378;2023-08-07T07:29:33;1.52;;;1.20;;
7334;SDS011;3708;42.632;23.378;2023-08-07T07:32:19;2.27;;;1.50;;
7334;SDS011;3708;42.632;23.378;2023-08-07T07:34:53;2.27;;;1.60;;
7334;SDS011;3708;42.632;23.378;2023-08-07T07:37:29;1.87;;;1.47;;
7334;SDS011;3708;42.632;23.378;2023-08-07T07:40:01;2.38;;;1.50;;
7334;SDS011;3708;42.632;23.378;2023-08-07T07:42:51;2.50;;;1.27;;
7334;SDS011;3708;42.632;23.378;2023-08-07T07:45:23;1.70;;;1.60;;
7334;SDS011;3708;42.632;23.378;2023-08-07T07:48:19;4.57;;;2.10;;
7334;SDS011;3708;42.632;23.378;2023-08-07T07:50:49;1.83;;;1.60;;
7334;SDS011;3708;42.632;23.378;2023-08-07T07:53:34;1.55;;;1.45;;
7334;SDS011;3708;42.632;23.378;2023-08-07T07:56:18;2.83;;;1.70;;
7334;SDS011;3708;42.632;23.378;2023-08-07T08:02:50;1.58;;;1.40;;
7334;SDS011;3708;42.632;23.378;2023-08-07T08:05:39;2.13;;;1.92;;
7334;SDS011;3708;42.632;23.378;2023-08-07T08:08:20;2.10;;;1.80;;
7334;SDS011;3708;42.632;23.378;2023-08-07T08:11:05;2.17;;;1.75;;
7334;SDS011;3708;42.632;23.378;2023-08-07T08:13:40;1.90;;;1.55;;
7334;SDS011;3708;42.632;23.378;2023-08-07T08:16:09;2.85;;;1.80;;
7334;SDS011;3708;42.632;23.378;2023-08-07T08:18:43;2.72;;;1.95;;
7334;SDS011;3708;42.632;23.378;2023-08-07T08:21:28;2.80;;;1.90;;
7334;SDS011;3708;42.632;23.378;2023-08-07T08:24:00;3.45;;;1.83;;
7334;SDS011;3708;42.632;23.378;2023-08-07T08:26:39;4.88;;;1.92;;
7334;SDS011;3708;42.632;23.378;2023-08-07T08:29:26;2.50;;;1.90;;
7334;SDS011;3708;42.632;23.378;2023-08-07T08:32:05;3.25;;;2.00;;
7334;SDS011;3708;42.632;23.378;2023-08-07T08:37:33;1.85;;;1.67;;
7334;SDS011;3708;42.632;23.378;2023-08-07T08:40:00;2.40;;;2.00;;
7334;SDS011;3708;42.632;23.378;2023-08-07T08:42:36;2.15;;;1.60;;
7334;SDS011;3708;42.632;23.378;2023-08-07T08:45:08;2.00;;;1.60;;
7334;SDS011;3708;42.632;23.378;2023-08-07T08:48:02;1.77;;;1.50;;
7334;SDS011;3708;42.632;23.378;2023-08-07T08:53:19;5.38;;;3.25;;
7334;SDS011;3708;42.632;23.378;2023-08-07T08:55:53;2.95;;;2.20;;
7334;SDS011;3708;42.632;23.378;2023-08-07T08:58:33;3.05;;;2.28;;
7334;SDS011;3708;42.632;23.378;2023-08-07T09:01:08;2.30;;;1.80;;
7334;SDS011;3708;42.632;23.378;2023-08-07T09:03:49;3.63;;;1.80;;
7334;SDS011;3708;42.632;23.378;2023-08-07T09:06:34;2.60;;;1.95;;
7334;SDS011;3708;42.632;23.378;2023-08-07T09:09:20;3.55;;;2.28;;
7334;SDS011;3708;42.632;23.378;2023-08-07T09:11:53;3.20;;;1.88;;
7334;SDS011;3708;42.632;23.378;2023-08-07T09:14:26;3.08;;;1.70;;
7334;SDS011;3708;42.632;23.378;2023-08-07T09:16:59;2.00;;;1.80;;
7334;SDS011;3708;42.632;23.378;2023-08-07T09:19:38;4.13;;;2.03;;
7334;SDS011;3708;42.632;23.378;2023-08-07T09:22:25;1.50;;;1.40;;
7334;SDS011;3708;42.632;23.378;2023-08-07T09:25:03;2.85;;;1.55;;
7334;SDS011;3708;42.632;23.378;2023-08-07T09:27:36;4.25;;;2.03;;
7334;SDS011;3708;42.632;23.378;2023-08-07T09:30:08;5.20;;;2.00;;
7334;SDS011;3708;42.632;23.378;2023-08-07T09:32:42;2.92;;;1.90;;
7334;SDS011;3708;42.632;23.378;2023-08-07T09:35:16;2.03;;;1.70;;
7334;SDS011;3708;42.632;23.378;2023-08-07T09:38:00;1.63;;;1.52;;
7334;SDS011;3708;42.632;23.378;2023-08-07T09:41:12;1.90;;;1.60;;
7334;SDS011;3708;42.632;23.378;2023-08-07T09:43:55;3.42;;;1.60;;
7334;SDS011;3708;42.632;23.378;2023-08-07T09:46:42;2.92;;;1.88;;
7334;SDS011;3708;42.632;23.378;2023-08-07T09:49:22;2.38;;;2.00;;
7334;SDS011;3708;42.632;23.378;2023-08-07T09:52:11;1.90;;;1.80;;
7334;SDS011;3708;42.632;23.378;2023-08-07T09:54:44;2.22;;;1.52;;
7334;SDS011;3708;42.632;23.378;2023-08-07T09:57:14;1.90;;;1.70;;
7334;SDS011;3708;42.632;23.378;2023-08-07T09:59:49;2.63;;;1.80;;
7334;SDS011;3708;42.632;23.378;2023-08-07T10:02:19;4.13;;;1.70;;
7334;SDS011;3708;42.632;23.378;2023-08-07T10:04:47;1.75;;;1.40;;
7334;SDS011;3708;42.632;23.378;2023-08-07T10:07:17;1.83;;;1.67;;
7334;SDS011;3708;42.632;23.378;2023-08-07T10:09:48;5.28;;;2.00;;
7334;SDS011;3708;42.632;23.378;2023-08-07T10:12:22;2.05;;;1.70;;
7334;SDS011;3708;42.632;23.378;2023-08-07T10:14:51;3.53;;;1.60;;
7334;SDS011;3708;42.632;23.378;2023-08-07T10:17:22;2.65;;;1.63;;
7334;SDS011;3708;42.632;23.378;2023-08-07T10:20:17;3.05;;;1.73;;
7334;SDS011;3708;42.632;23.378;2023-08-07T10:22:45;2.05;;;1.70;;
7334;SDS011;3708;42.632;23.378;2023-08-07T10:25:41;3.85;;;2.00;;
7334;SDS011;3708;42.632;23.378;2023-08-07T10:28:12;2.75;;;1.65;;
7334;SDS011;3708;42.632;23.378;2023-08-07T10:30:45;3.25;;;1.88;;
7334;SDS011;3708;42.632;23.378;2023-08-07T10:33:16;2.38;;;1.67;;
7334;SDS011;3708;42.632;23.378;2023-08-07T10:35:51;1.75;;;1.60;;
7334;SDS011;3708;42.632;23.378;2023-08-07T10:38:33;1.80;;;1.60;;
7334;SDS011;3708;42.632;23.378;2023-08-07T10:41:07;2.70;;;1.52;;
7334;SDS011;3708;42.632;23.378;2023-08-07T10:43:40;1.60;;;1.50;;
7334;SDS011;3708;42.632;23.378;2023-08-07T10:46:19;2.78;;;1.58;;
7334;SDS011;3708;42.632;23.378;2023-08-07T10:48:47;3.13;;;1.35;;
7334;SDS011;3708;42.632;23.378;2023-08-07T10:51:29;2.42;;;1.77;;
7334;SDS011;3708;42.632;23.378;2023-08-07T10:54:10;2.10;;;1.50;;
7334;SDS011;3708;42.632;23.378;2023-08-07T10:57:05;4.75;;;1.75;;
7334;SDS011;3708;42.632;23.378;2023-08-07T11:00:01;1.52;;;1.42;;
7334;SDS011;3708;42.632;23.378;2023-08-07T11:02:36;2.75;;;1.65;;
7334;SDS011;3708;42.632;23.378;2023-08-07T11:05:17;2.60;;;1.48;;
7334;SDS011;3708;42.632;23.378;2023-08-07T11:07:51;2.28;;;1.38;;
7334;SDS011;3708;42.632;23.378;2023-08-07T11:10:32;2.17;;;1.70;;
7334;SDS011;3708;42.632;23.378;2023-08-07T11:13:01;2.83;;;1.75;;
7334;SDS011;3708;42.632;23.378;2023-08-07T11:15:31;2.20;;;1.67;;
7334;SDS011;3708;42.632;23.378;2023-08-07T11:18:19;2.67;;;1.75;;
7334;SDS011;3708;42.632;23.378;2023-08-07T11:20:53;1.52;;;1.42;;
7334;SDS011;3708;42.632;23.378;2023-08-07T11:23:27;3.17;;;1.60;;
7334;SDS011;3708;42.632;23.378;2023-08-07T11:25:54;2.20;;;1.60;;
7334;SDS011;3708;42.632;23.378;2023-08-07T11:28:29;2.13;;;1.70;;
7334;SDS011;3708;42.632;23.378;2023-08-07T11:31:04;2.85;;;1.40;;
7334;SDS011;3708;42.632;23.378;2023-08-07T11:33:33;1.95;;;1.40;;
7334;SDS011;3708;42.632;23.378;2023-08-07T11:36:04;2.17;;;1.50;;
7334;SDS011;3708;42.632;23.378;2023-08-07T11:38:42;1.35;;;1.25;;
7334;SDS011;3708;42.632;23.378;2023-08-07T11:41:18;3.78;;;1.60;;
7334;SDS011;3708;42.632;23.378;2023-08-07T11:43:55;4.07;;;1.80;;
7334;SDS011;3708;42.632;23.378;2023-08-07T11:46:23;3.83;;;1.75;;
7334;SDS011;3708;42.632;23.378;2023-08-07T11:48:56;3.00;;;2.03;;
7334;SDS011;3708;42.632;23.378;2023-08-07T11:51:33;2.47;;;1.70;;
7334;SDS011;3708;42.632;23.378;2023-08-07T11:54:23;1.52;;;1.40;;
7334;SDS011;3708;42.632;23.378;2023-08-07T11:56:53;1.88;;;1.52;;
7334;SDS011;3708;42.632;23.378;2023-08-07T11:59:21;2.13;;;1.58;;
7334;SDS011;3708;42.632;23.378;2023-08-07T12:01:49;2.33;;;1.52;;
7334;SDS011;3708;42.632;23.378;2023-08-07T12:04:17;1.63;;;1.40;;
7334;SDS011;3708;42.632;23.378;2023-08-07T12:06:52;1.67;;;1.35;;
7334;SDS011;3708;42.632;23.378;2023-08-07T12:09:21;1.77;;;1.55;;
7334;SDS011;3708;42.632;23.378;2023-08-07T12:11:55;1.60;;;1.50;;
7334;SDS011;3708;42.632;23.378;2023-08-07T12:14:29;2.90;;;1.70;;
7334;SDS011;3708;42.632;23.378;2023-08-07T12:17:14;3.92;;;1.80;;
7334;SDS011;3708;42.632;23.378;2023-08-07T12:19:43;2.95;;;1.77;;
7334;SDS011;3708;42.632;23.378;2023-08-07T12:22:19;2.13;;;1.80;;
7334;SDS011;3708;42.632;23.378;2023-08-07T12:24:50;2.88;;;1.50;;
7334;SDS011;3708;42.632;23.378;2023-08-07T12:27:19;1.52;;;1.33;;
7334;SDS011;3708;42.632;23.378;2023-08-07T12:30:11;1.90;;;1.70;;
7334;SDS011;3708;42.632;23.378;2023-08-07T12:32:48;5.50;;;1.70;;
7334;SDS011;3708;42.632;23.378;2023-08-07T12:35:25;2.58;;;1.60;;
7334;SDS011;3708;42.632;23.378;2023-08-07T12:38:01;4.35;;;2.08;;
7334;SDS011;3708;42.632;23.378;2023-08-07T12:40:39;1.95;;;1.67;;
7334;SDS011;3708;42.632;23.378;2023-08-07T12:43:13;1.63;;;1.52;;
7334;SDS011;3708;42.632;23.378;2023-08-07T12:45:52;2.20;;;1.52;;
7334;SDS011;3708;42.632;23.378;2023-08-07T12:48:29;2.65;;;1.55;;
7334;SDS011;3708;42.632;23.378;2023-08-07T12:50:56;1.58;;;1.48;;
7334;SDS011;3708;42.632;23.378;2023-08-07T12:53:54;1.73;;;1.52;;
7334;SDS011;3708;42.632;23.378;2023-08-07T12:56:42;3.25;;;1.70;;
7334;SDS011;3708;42.632;23.378;2023-08-07T12:59:16;2.33;;;1.60;;
7334;SDS011;3708;42.632;23.378;2023-08-07T13:02:16;2.67;;;1.50;;
7334;SDS011;3708;42.632;23.378;2023-08-07T13:04:57;2.67;;;1.58;;
7334;SDS011;3708;42.632;23.378;2023-08-07T13:07:35;5.32;;;2.03;;
7334;SDS011;3708;42.632;23.378;2023-08-07T13:10:06;2.03;;;1.50;;
7334;SDS011;3708;42.632;23.378;2023-08-07T13:12:47;3.03;;;1.60;;
7334;SDS011;3708;42.632;23.378;2023-08-07T13:15:18;3.78;;;1.70;;
7334;SDS011;3708;42.632;23.378;2023-08-07T13:17:47;1.92;;;1.73;;
7334;SDS011;3708;42.632;23.378;2023-08-07T13:20:15;1.75;;;1.60;;
7334;SDS011;3708;42.632;23.378;2023-08-07T13:22:54;2.83;;;1.80;;
7334;SDS011;3708;42.632;23.378;2023-08-07T13:25:22;3.13;;;1.80;;
7334;SDS011;3708;42.632;23.378;2023-08-07T13:27:59;8.45;;;1.88;;
7334;SDS011;3708;42.632;23.378;2023-08-07T13:30:29;4.70;;;2.03;;
7334;SDS011;3708;42.632;23.378;2023-08-07T13:33:01;7.90;;;2.10;;
7334;SDS011;3708;42.632;23.378;2023-08-07T13:35:32;2.88;;;1.90;;
7334;SDS011;3708;42.632;23.378;2023-08-07T13:37:59;5.03;;;1.80;;
7334;SDS011;3708;42.632;23.378;2023-08-07T13:40:30;2.17;;;1.98;;
7334;SDS011;3708;42.632;23.378;2023-08-07T13:43:01;1.75;;;1.63;;
7334;SDS011;3708;42.632;23.378;2023-08-07T13:45:38;2.90;;;1.70;;
7334;SDS011;3708;42.632;23.378;2023-08-07T13:48:18;6.65;;;1.88;;
7334;SDS011;3708;42.632;23.378;2023-08-07T13:51:00;1.77;;;1.67;;
7334;SDS011;3708;42.632;23.378;2023-08-07T13:53:35;4.68;;;1.50;;
7334;SDS011;3708;42.632;23.378;2023-08-07T13:56:06;2.63;;;1.60;;
7334;SDS011;3708;42.632;23.378;2023-08-07T13:58:37;2.30;;;1.60;;
7334;SDS011;3708;42.632;23.378;2023-08-07T14:01:10;3.05;;;1.73;;
7334;SDS011;3708;42.632;23.378;2023-08-07T14:03:43;5.38;;;1.77;;
7334;SDS011;3708;42.632;23.378;2023-08-07T14:06:13;1.80;;;1.60;;
7334;SDS011;3708;42.632;23.378;2023-08-07T14:08:42;2.13;;;1.40;;
7334;SDS011;3708;42.632;23.378;2023-08-07T14:11:09;1.70;;;1.60;;
7334;SDS011;3708;42.632;23.378;2023-08-07T14:13:39;2.80;;;1.33;;
7334;SDS011;3708;42.632;23.378;2023-08-07T14:16:09;3.28;;;1.92;;
7334;SDS011;3708;42.632;23.378;2023-08-07T14:18:45;2.38;;;1.73;;
7334;SDS011;3708;42.632;23.378;2023-08-07T14:21:21;1.88;;;1.50;;
7334;SDS011;3708;42.632;23.378;2023-08-07T14:23:49;6.65;;;1.85;;
7334;SDS011;3708;42.632;23.378;2023-08-07T14:26:21;4.97;;;2.08;;
7334;SDS011;3708;42.632;23.378;2023-08-07T14:28:50;5.43;;;1.80;;
7334;SDS011;3708;42.632;23.378;2023-08-07T14:31:21;2.13;;;1.60;;
7334;SDS011;3708;42.632;23.378;2023-08-07T14:33:53;2.15;;;1.85;;
7334;SDS011;3708;42.632;23.378;2023-08-07T14:36:21;2.30;;;1.75;;
7334;SDS011;3708;42.632;23.378;2023-08-07T14:38:50;2.03;;;1.83;;
7334;SDS011;3708;42.632;23.378;2023-08-07T14:41:23;2.13;;;1.65;;
7334;SDS011;3708;42.632;23.378;2023-08-07T14:44:01;5.18;;;1.95;;
7334;SDS011;3708;42.632;23.378;2023-08-07T14:46:31;1.88;;;1.42;;
7334;SDS011;3708;42.632;23.378;2023-08-07T14:49:12;2.33;;;1.60;;
7334;SDS011;3708;42.632;23.378;2023-08-07T14:52:11;3.05;;;2.05;;
7334;SDS011;3708;42.632;23.378;2023-08-07T14:54:47;3.28;;;1.60;;
7334;SDS011;3708;42.632;23.378;2023-08-07T14:57:21;3.08;;;1.45;;
7334;SDS011;3708;42.632;23.378;2023-08-07T14:59:56;3.45;;;2.00;;
7334;SDS011;3708;42.632;23.378;2023-08-07T15:02:31;2.50;;;1.90;;
7334;SDS011;3708;42.632;23.378;2023-08-07T15:05:03;2.38;;;1.73;;
7334;SDS011;3708;42.632;23.378;2023-08-07T15:07:34;2.95;;;1.83;;
7334;SDS011;3708;42.632;23.378;2023-08-07T15:10:05;1.75;;;1.60;;
7334;SDS011;3708;42.632;23.378;2023-08-07T15:12:36;1.95;;;1.63;;
7334;SDS011;3708;42.632;23.378;2023-08-07T15:15:10;4.18;;;1.48;;
7334;SDS011;3708;42.632;23.378;2023-08-07T15:17:39;1.83;;;1.67;;
7334;SDS011;3708;42.632;23.378;2023-08-07T15:20:13;5.68;;;2.13;;
7334;SDS011;3708;42.632;23.378;2023-08-07T15:22:40;5.10;;;1.65;;
7334;SDS011;3708;42.632;23.378;2023-08-07T15:25:09;3.42;;;1.42;;
7334;SDS011;3708;42.632;23.378;2023-08-07T15:27:36;1.90;;;1.50;;
7334;SDS011;3708;42.632;23.378;2023-08-07T15:30:08;3.03;;;1.50;;
7334;SDS011;3708;42.632;23.378;2023-08-07T15:32:39;2.08;;;1.58;;
7334;SDS011;3708;42.632;23.378;2023-08-07T15:35:06;2.45;;;1.70;;
7334;SDS011;3708;42.632;23.378;2023-08-07T15:37:40;2.38;;;1.50;;
7334;SDS011;3708;42.632;23.378;2023-08-07T15:40:13;2.00;;;1.80;;
7334;SDS011;3708;42.632;23.378;2023-08-07T15:42:42;4.70;;;1.70;;
7334;SDS011;3708;42.632;23.378;2023-08-07T15:45:12;2.42;;;1.70;;
7334;SDS011;3708;42.632;23.378;2023-08-07T15:47:47;2.80;;;1.88;;